createdAt,value
2019-03-23T08:40:07.514Z,20.42
2019-03-23T08:41:07.376Z,20.43
2019-03-23T08:42:37.937Z,20.65
2019-03-23T08:43:37.928Z,23.22
2019-03-23T08:45:08.330Z,20.52
2019-03-23T08:46:08.280Z,20.52
2019-03-23T08:47:38.876Z,21.26
2019-03-23T08:48:38.801Z,21.55
2019-03-23T08:50:09.555Z,20.32
2019-03-23T08:51:09.540Z,20.40
2019-03-23T08:52:41.905Z,20.36
2019-03-23T08:53:39.880Z,21.43
2019-03-23T08:54:39.871Z,20.73
2019-03-23T08:55:39.861Z,20.72
2019-03-23T08:56:39.862Z,19.92
2019-03-23T08:57:41.411Z,20.50
2019-03-23T08:58:39.825Z,20.78
2019-03-23T08:59:39.819Z,19.68
2019-03-23T09:00:39.810Z,18.58
2019-03-23T09:01:39.800Z,19.50
2019-03-23T09:02:39.784Z,20.21
2019-03-23T09:03:39.777Z,20.72
2019-03-23T09:04:39.765Z,19.92
2019-03-23T09:05:39.761Z,20.70
2019-03-23T09:06:39.744Z,19.79
2019-03-23T09:07:39.732Z,19.85
2019-03-23T09:08:39.738Z,19.34
2019-03-23T09:09:39.714Z,18.34
2019-03-23T09:10:39.700Z,17.36
2019-03-23T09:11:39.690Z,18.73
2019-03-23T09:12:39.683Z,18.51
2019-03-23T09:13:40.889Z,18.02
2019-03-23T09:14:39.677Z,18.75
2019-03-23T09:15:39.666Z,20.20
2019-03-23T09:16:39.642Z,19.60
2019-03-23T09:17:39.641Z,19.89
2019-03-23T09:18:39.634Z,19.47
2019-03-23T09:19:39.613Z,19.84
2019-03-23T09:20:39.605Z,18.54
2019-03-23T09:21:39.601Z,18.52
2019-03-23T09:22:39.585Z,17.62
2019-03-23T09:23:39.575Z,18.75
2019-03-23T09:24:39.565Z,19.13
2019-03-23T09:25:39.553Z,19.48
2019-03-23T09:26:39.549Z,19.95
2019-03-23T09:27:39.534Z,18.87
2019-03-23T09:28:39.521Z,19.66
2019-03-23T09:29:39.512Z,18.87
2019-03-23T09:30:39.503Z,18.58
2019-03-23T09:31:39.488Z,17.78
2019-03-23T09:32:39.482Z,18.78
2019-03-23T09:33:39.473Z,18.50
2019-03-23T09:34:39.481Z,19.51
2019-03-23T09:35:39.679Z,19.53
2019-03-23T09:36:41.317Z,21.06
2019-03-23T09:37:39.434Z,21.03
2019-03-23T09:38:39.423Z,20.10
2019-03-23T09:39:39.416Z,20.29
2019-03-23T09:40:39.404Z,20.76
2019-03-23T09:41:39.391Z,19.55
2019-03-23T09:42:39.395Z,20.37
2019-03-23T09:43:39.386Z,20.36
2019-03-23T09:44:39.368Z,20.76
2019-03-23T09:45:39.356Z,21.34
2019-03-23T09:46:39.347Z,21.81
2019-03-23T09:47:39.334Z,21.00
2019-03-23T09:48:39.333Z,20.02
2019-03-23T09:49:39.315Z,20.62
2019-03-23T09:50:39.310Z,21.51
2019-03-23T09:51:39.298Z,20.09
2019-03-23T09:52:39.296Z,20.60
2019-03-23T09:53:39.308Z,20.29
2019-03-23T09:54:39.282Z,19.67
2019-03-23T09:55:39.259Z,20.38
2019-03-23T09:56:39.257Z,20.50
2019-03-23T09:57:39.246Z,20.00
2019-03-23T09:58:39.269Z,20.52
2019-03-23T09:59:39.220Z,20.83
2019-03-23T10:00:39.220Z,23.03
2019-03-23T10:01:39.225Z,20.14
2019-03-23T10:02:39.209Z,20.43
2019-03-23T10:03:39.175Z,21.29
2019-03-23T10:04:39.186Z,21.58
2019-03-23T10:05:39.164Z,20.40
2019-03-23T10:06:39.151Z,20.12
2019-03-23T10:07:39.141Z,20.42
2019-03-23T10:08:39.145Z,20.48
2019-03-23T10:09:39.129Z,19.29
2019-03-23T10:10:39.111Z,21.61
2019-03-23T10:11:39.115Z,21.31
2019-03-23T10:12:39.085Z,20.63
2019-03-23T10:13:39.083Z,20.70
2019-03-23T10:14:39.901Z,20.13
2019-03-23T10:15:39.064Z,22.03
2019-03-23T10:16:39.052Z,21.61
2019-03-23T10:17:39.046Z,21.53
2019-03-23T10:18:39.029Z,21.23
2019-03-23T10:19:39.024Z,21.52
2019-03-23T10:20:39.017Z,21.23
2019-03-23T10:21:38.996Z,21.12
2019-03-23T10:22:38.996Z,21.09
2019-03-23T10:23:38.983Z,20.59
2019-03-23T10:24:38.973Z,20.78
2019-03-23T10:25:38.986Z,20.57
2019-03-23T10:26:38.950Z,20.40
2019-03-23T10:27:38.942Z,20.79
2019-03-23T10:28:38.932Z,20.83
2019-03-23T10:29:38.925Z,21.11
2019-03-23T10:30:38.912Z,21.29
2019-03-23T10:31:38.904Z,20.97
2019-03-23T10:32:38.885Z,21.33
2019-03-23T10:33:38.881Z,19.55
2019-03-23T10:34:38.874Z,20.07
2019-03-23T10:35:38.873Z,20.18
2019-03-23T10:36:38.853Z,21.35
2019-03-23T10:37:38.843Z,20.35
2019-03-23T10:38:38.837Z,19.34
2019-03-23T10:39:38.824Z,19.82
2019-03-23T10:40:38.813Z,19.23
2019-03-23T10:41:38.818Z,19.89
2019-03-23T10:42:38.805Z,20.18
2019-03-23T10:43:39.108Z,20.89
2019-03-23T10:44:38.771Z,19.79
2019-03-23T10:45:44.174Z,20.20
2019-03-23T10:46:39.754Z,21.35
2019-03-23T10:47:38.790Z,19.34
2019-03-23T10:48:38.735Z,19.42
2019-03-23T10:49:38.733Z,19.36
2019-03-23T10:50:38.712Z,19.78
2019-03-23T10:51:38.709Z,20.19
2019-03-23T10:52:38.698Z,19.95
2019-03-23T10:53:38.684Z,20.03
2019-03-23T10:54:38.684Z,20.07
2019-03-23T10:55:38.665Z,21.49
2019-03-23T10:56:38.658Z,21.38
2019-03-23T10:57:38.648Z,20.37
2019-03-23T10:58:38.639Z,21.00
2019-03-23T10:59:38.629Z,20.15
2019-03-23T11:00:38.627Z,19.82
2019-03-23T11:01:38.609Z,20.21
2019-03-23T11:02:38.602Z,20.25
2019-03-23T11:03:38.593Z,20.57
2019-03-23T11:04:38.582Z,20.57
2019-03-23T11:05:38.568Z,20.54
2019-03-23T11:06:38.569Z,19.85
2019-03-23T11:07:38.553Z,20.64
2019-03-23T11:08:38.552Z,20.06
2019-03-23T11:09:38.535Z,21.84
2019-03-23T11:10:41.930Z,20.59
2019-03-23T11:11:38.519Z,21.25
2019-03-23T11:12:38.515Z,20.56
2019-03-23T11:13:38.501Z,20.98
2019-03-23T11:14:38.489Z,20.41
2019-03-23T11:15:38.478Z,22.67
2019-03-23T11:16:38.470Z,21.77
2019-03-23T11:17:38.461Z,21.47
2019-03-23T11:18:38.456Z,20.57
2019-03-23T11:19:38.444Z,20.37
2019-03-23T11:20:38.437Z,20.68
2019-03-23T11:21:38.428Z,20.98
2019-03-23T11:22:38.415Z,20.37
2019-03-23T11:23:38.405Z,20.03
2019-03-23T11:24:38.411Z,20.33
2019-03-23T11:25:38.385Z,20.17
2019-03-23T11:26:38.378Z,21.27
2019-03-23T11:27:38.366Z,21.97
2019-03-23T11:28:38.361Z,21.17
2019-03-23T11:29:38.350Z,20.38
2019-03-23T11:30:38.341Z,21.89
2019-03-23T11:31:38.338Z,20.29
2019-03-23T11:32:38.329Z,20.59
2019-03-23T11:33:38.315Z,20.49
2019-03-23T11:34:38.307Z,20.68
2019-03-23T11:35:38.294Z,20.27
2019-03-23T11:36:38.283Z,19.96
2019-03-23T11:37:38.489Z,20.54
2019-03-23T11:38:38.279Z,20.15
2019-03-23T11:39:38.267Z,21.11
2019-03-23T11:40:38.253Z,19.79
2019-03-23T11:41:38.249Z,19.59
2019-03-23T11:42:48.766Z,20.10
2019-03-23T11:43:39.230Z,19.57
2019-03-23T11:44:38.280Z,19.95
2019-03-23T11:45:38.204Z,20.34
2019-03-23T11:46:38.200Z,19.34
2019-03-23T11:47:38.191Z,18.91
2019-03-23T11:48:38.184Z,19.10
2019-03-23T11:49:38.165Z,18.75
2019-03-23T11:50:38.162Z,19.57
2019-03-23T11:51:38.161Z,20.36
2019-03-23T11:52:38.140Z,19.66
2019-03-23T11:53:38.135Z,20.33
2019-03-23T11:54:38.116Z,20.12
2019-03-23T11:55:38.118Z,20.22
2019-03-23T11:56:38.105Z,19.01
2019-03-23T11:57:38.111Z,19.32
2019-03-23T11:58:38.092Z,19.90
2019-03-23T11:59:38.075Z,19.11
2019-03-23T12:00:38.083Z,19.40
2019-03-23T12:01:38.057Z,19.61
2019-03-23T12:02:38.072Z,19.32
2019-03-23T12:03:38.051Z,19.32
2019-03-23T12:04:38.046Z,19.80
2019-03-23T12:05:38.020Z,18.34
2019-03-23T12:06:38.022Z,19.40
2019-03-23T12:07:37.997Z,18.29
2019-03-23T12:08:37.998Z,18.50
2019-03-23T12:09:37.980Z,18.71
2019-03-23T12:10:37.975Z,19.48
2019-03-23T12:11:37.966Z,18.18
2019-03-23T12:12:37.950Z,18.08
2019-03-23T12:13:37.947Z,17.69
2019-03-23T12:14:37.937Z,19.30
2019-03-23T12:15:37.939Z,19.81
2019-03-23T12:16:37.923Z,18.61
2019-03-23T12:17:37.910Z,19.50
2019-03-23T12:18:37.908Z,19.71
2019-03-23T12:19:37.890Z,19.66
2019-03-23T12:20:37.879Z,19.42
2019-03-23T12:21:37.874Z,18.61
2019-03-23T12:22:37.865Z,19.50
2019-03-23T12:23:37.853Z,18.68
2019-03-23T12:24:37.846Z,19.40
2019-03-23T12:25:37.833Z,19.48
2019-03-23T12:26:37.835Z,19.11
2019-03-23T12:27:37.812Z,19.62
2019-03-23T12:28:37.812Z,20.06
2019-03-23T12:29:37.799Z,20.07
2019-03-23T12:30:37.787Z,20.28
2019-03-23T12:31:37.779Z,19.65
2019-03-23T12:32:37.767Z,20.15
2019-03-23T12:33:37.764Z,20.04
2019-03-23T12:34:37.752Z,19.95
2019-03-23T12:35:37.773Z,20.15
2019-03-23T12:36:37.742Z,20.53
2019-03-23T12:37:37.730Z,20.20
2019-03-23T12:38:37.713Z,18.19
2019-03-23T12:39:37.704Z,19.07
2019-03-23T12:40:37.691Z,18.19
2019-03-23T12:41:37.689Z,17.86
2019-03-23T12:42:37.672Z,17.96
2019-03-23T12:43:37.675Z,17.80
2019-03-23T12:44:37.661Z,19.59
2019-03-23T12:45:38.908Z,18.18
2019-03-23T12:46:47.724Z,17.99
2019-03-23T12:47:38.629Z,17.58
2019-03-23T12:48:37.619Z,17.69
2019-03-23T12:49:37.608Z,18.83
2019-03-23T12:50:37.611Z,19.40
2019-03-23T12:51:37.585Z,17.98
2019-03-23T12:52:37.581Z,17.69
2019-03-23T12:53:37.578Z,17.60
2019-03-23T12:54:37.568Z,18.41
2019-03-23T12:55:37.571Z,18.25
2019-03-23T12:56:37.542Z,19.34
2019-03-23T12:57:37.553Z,19.43
2019-03-23T12:58:37.528Z,19.43
2019-03-23T12:59:37.536Z,19.85
2019-03-23T13:00:37.521Z,19.73
2019-03-23T13:01:37.498Z,20.22
2019-03-23T13:02:37.496Z,19.90
2019-03-23T13:03:37.475Z,19.30
2019-03-23T13:04:37.463Z,18.99
2019-03-23T13:05:37.616Z,18.41
2019-03-23T13:06:37.448Z,19.11
2019-03-23T13:07:37.447Z,19.45
2019-03-23T13:08:37.424Z,20.45
2019-03-23T13:09:37.417Z,19.55
2019-03-23T13:10:37.406Z,19.71
2019-03-23T13:11:37.395Z,19.80
2019-03-23T13:12:37.399Z,18.60
2019-03-23T13:13:37.400Z,17.79
2019-03-23T13:14:37.363Z,17.97
2019-03-23T13:15:37.365Z,17.60
2019-03-23T13:16:37.346Z,17.68
2019-03-23T13:17:37.333Z,18.25
2019-03-23T13:18:37.329Z,17.58
2019-03-23T13:19:37.318Z,18.21
2019-03-23T13:20:37.310Z,18.42
2019-03-23T13:21:37.315Z,19.95
2019-03-23T13:22:37.289Z,20.03
2019-03-23T13:23:37.296Z,19.13
2019-03-23T13:24:37.267Z,18.63
2019-03-23T13:25:37.255Z,18.23
2019-03-23T13:26:37.661Z,17.69
2019-03-23T13:27:37.257Z,17.00
2019-03-23T13:28:37.243Z,16.69
2019-03-23T13:29:37.218Z,17.24
2019-03-23T13:30:37.216Z,18.12
2019-03-23T13:31:37.227Z,17.14
2019-03-23T13:32:37.190Z,17.33
2019-03-23T13:33:37.192Z,17.03
2019-03-23T13:34:37.266Z,17.73
2019-03-23T13:35:37.276Z,19.01
2019-03-23T13:36:37.159Z,17.80
2019-03-23T13:37:37.150Z,17.05
2019-03-23T13:38:37.150Z,17.96
2019-03-23T13:39:37.234Z,18.65
2019-03-23T13:40:37.240Z,17.83
2019-03-23T13:41:44.615Z,18.71
2019-03-23T13:42:38.098Z,17.73
2019-03-23T13:43:37.183Z,18.73
2019-03-23T13:44:37.080Z,17.55
2019-03-23T13:45:42.592Z,17.71
2019-03-23T13:46:38.231Z,17.80
2019-03-23T13:47:37.085Z,18.33
2019-03-23T13:48:37.038Z,18.14
2019-03-23T13:49:37.030Z,19.85
2019-03-23T13:50:37.020Z,18.43
2019-03-23T13:51:37.068Z,18.85
2019-03-23T13:52:37.013Z,19.54
2019-03-23T13:53:37.771Z,18.43
2019-03-23T13:54:36.979Z,18.61
2019-03-23T13:55:36.970Z,17.85
2019-03-23T13:56:36.958Z,18.52
2019-03-23T13:57:36.956Z,17.90
2019-03-23T13:58:36.955Z,17.11
2019-03-23T13:59:36.930Z,17.02
2019-03-23T14:00:36.919Z,18.12
2019-03-23T14:01:37.222Z,18.12
2019-03-23T14:02:36.944Z,18.61
2019-03-23T14:03:36.890Z,18.23
2019-03-23T14:04:36.876Z,17.43
2019-03-23T14:05:36.865Z,17.83
2019-03-23T14:06:36.863Z,18.04
2019-03-23T14:07:36.855Z,17.42
2019-03-23T14:08:36.840Z,17.21
2019-03-23T14:09:36.836Z,17.21
2019-03-23T14:10:36.829Z,17.30
2019-03-23T14:11:36.818Z,17.79
2019-03-23T14:12:36.798Z,17.79
2019-03-23T14:13:36.790Z,17.71
2019-03-23T14:14:36.782Z,17.43
2019-03-23T14:15:36.771Z,16.94
2019-03-23T14:16:36.761Z,17.04
2019-03-23T14:17:36.754Z,17.24
2019-03-23T14:18:36.740Z,17.54
2019-03-23T14:19:36.731Z,18.12
2019-03-23T14:20:36.720Z,18.54
2019-03-23T14:21:36.713Z,19.15
2019-03-23T14:22:36.712Z,17.63
2019-03-23T14:23:36.692Z,18.02
2019-03-23T14:24:36.683Z,17.33
2019-03-23T14:25:36.676Z,17.94
2019-03-23T14:26:36.668Z,17.85
2019-03-23T14:27:36.659Z,18.92
2019-03-23T14:28:36.656Z,17.73
2019-03-23T14:29:36.632Z,19.43
2019-03-23T14:30:36.647Z,18.63
2019-03-23T14:31:36.622Z,17.83
2019-03-23T14:32:36.609Z,18.11
2019-03-23T14:33:36.603Z,17.41
2019-03-23T14:34:36.623Z,17.71
2019-03-23T14:35:36.578Z,17.71
2019-03-23T14:36:36.595Z,17.99
2019-03-23T14:37:36.550Z,17.30
2019-03-23T14:38:36.540Z,17.31
2019-03-23T14:39:36.533Z,17.22
2019-03-23T14:40:36.522Z,17.62
2019-03-23T14:41:36.559Z,17.43
2019-03-23T14:42:36.496Z,18.42
2019-03-23T14:43:36.486Z,17.73
2019-03-23T14:44:36.484Z,17.83
2019-03-23T14:45:37.040Z,18.80
2019-03-23T14:46:36.458Z,17.13
2019-03-23T14:47:36.457Z,17.13
2019-03-23T14:48:36.453Z,17.33
2019-03-23T14:49:36.440Z,17.33
2019-03-23T14:50:36.416Z,17.05
2019-03-23T14:51:36.413Z,18.44
2019-03-23T14:52:36.401Z,18.44
2019-03-23T14:53:36.385Z,18.35
2019-03-23T14:54:36.378Z,18.55
2019-03-23T14:55:37.481Z,18.75
2019-03-23T14:56:36.359Z,18.05
2019-03-23T14:57:36.347Z,17.64
2019-03-23T14:58:36.353Z,17.54
2019-03-23T14:59:36.441Z,17.35
2019-03-23T15:00:36.343Z,17.74
2019-03-23T15:01:36.311Z,17.86
2019-03-23T15:02:36.536Z,18.05
2019-03-23T15:03:36.338Z,17.85
2019-03-23T15:04:36.429Z,18.05
2019-03-23T15:05:36.269Z,17.66
2019-03-23T15:06:36.259Z,18.54
2019-03-23T15:07:36.245Z,17.85
2019-03-23T15:08:36.233Z,17.94
2019-03-23T15:09:36.258Z,17.92
2019-03-23T15:10:36.271Z,17.35
2019-03-23T15:11:36.227Z,19.46
2019-03-23T15:12:36.192Z,19.26
2019-03-23T15:13:36.182Z,19.34
2019-03-23T15:14:36.227Z,19.76
2019-03-23T15:15:36.248Z,20.03
2019-03-23T15:16:36.152Z,19.34
2019-03-23T15:17:36.147Z,20.14
2019-03-23T15:18:36.152Z,19.85
2019-03-23T15:19:36.129Z,19.36
2019-03-23T15:20:36.110Z,19.36
2019-03-23T15:21:36.130Z,19.44
2019-03-23T15:22:36.135Z,19.44
2019-03-23T15:23:36.175Z,18.15
2019-03-23T15:24:36.111Z,18.93
2019-03-23T15:25:36.313Z,19.13
2019-03-23T15:26:36.083Z,19.52
2019-03-23T15:27:36.058Z,19.31
2019-03-23T15:28:36.093Z,19.23
2019-03-23T15:29:36.065Z,20.03
2019-03-23T15:30:36.028Z,20.36
2019-03-23T15:31:36.070Z,20.46
2019-03-23T15:32:35.994Z,20.27
2019-03-23T15:33:36.051Z,19.68
2019-03-23T15:34:36.143Z,20.08
2019-03-23T15:35:36.001Z,19.49
2019-03-23T15:36:35.955Z,20.00
2019-03-23T15:37:35.939Z,19.79
2019-03-23T15:38:36.039Z,19.58
2019-03-23T15:39:35.942Z,19.59
2019-03-23T15:40:35.899Z,20.48
2019-03-23T15:41:35.907Z,19.39
2019-03-23T15:42:36.618Z,20.48
2019-03-23T15:43:35.867Z,19.89
2019-03-23T15:44:35.886Z,20.18
2019-03-23T15:45:35.851Z,20.28
2019-03-23T15:46:35.865Z,20.18
2019-03-23T15:47:35.846Z,19.67
2019-03-23T15:48:35.864Z,19.85
2019-03-23T15:49:35.828Z,19.76
2019-03-23T15:50:35.820Z,19.68
2019-03-23T15:51:35.790Z,19.70
2019-03-23T15:52:35.793Z,20.61
2019-03-23T15:53:35.773Z,20.42
2019-03-23T15:54:35.756Z,20.76
2019-03-23T15:55:35.765Z,21.98
2019-03-23T15:56:35.735Z,22.51
2019-03-23T15:57:35.755Z,23.23
2019-03-23T15:58:35.712Z,24.63
2019-03-23T15:59:35.706Z,24.15
2019-03-23T16:00:35.700Z,24.35
2019-03-23T16:01:35.681Z,24.25
2019-03-23T16:02:35.740Z,24.75
2019-03-23T16:03:35.693Z,24.76
2019-03-23T16:04:35.686Z,25.06
2019-03-23T16:05:35.647Z,24.46
2019-03-23T16:06:35.636Z,25.46
2019-03-23T16:07:35.623Z,25.97
2019-03-23T16:08:35.621Z,25.56
2019-03-23T16:09:35.619Z,25.66
2019-03-23T16:10:35.593Z,25.37
2019-03-23T16:11:35.626Z,25.77
2019-03-23T16:12:37.651Z,25.97
2019-03-23T16:13:35.653Z,25.67
2019-03-23T16:14:35.632Z,25.97
2019-03-23T16:15:35.533Z,25.17
2019-03-23T16:16:35.516Z,25.37
2019-03-23T16:17:35.521Z,25.48
2019-03-23T16:18:35.507Z,25.68
2019-03-23T16:19:35.481Z,25.98
2019-03-23T16:20:35.550Z,25.98
2019-03-23T16:21:35.465Z,26.59
2019-03-23T16:22:35.466Z,26.50
2019-03-23T16:23:35.492Z,26.59
2019-03-23T16:24:35.439Z,26.40
2019-03-23T16:25:35.422Z,27.00
2019-03-23T16:26:35.414Z,26.29
2019-03-23T16:27:35.394Z,25.99
2019-03-23T16:28:35.393Z,26.10
2019-03-23T16:29:35.426Z,25.91
2019-03-23T16:30:35.372Z,26.01
2019-03-23T16:31:35.441Z,26.51
2019-03-23T16:32:35.383Z,26.61
2019-03-23T16:33:35.379Z,26.22
2019-03-23T16:34:35.431Z,26.91
2019-03-23T16:35:35.481Z,26.21
2019-03-23T16:36:35.428Z,27.01
2019-03-23T16:37:35.401Z,26.72
2019-03-23T16:38:35.686Z,27.12
2019-03-23T16:39:35.365Z,27.32
2019-03-23T16:40:35.264Z,26.52
2019-03-23T16:41:35.316Z,26.92
2019-03-23T16:42:44.540Z,27.12
2019-03-23T16:43:36.260Z,27.52
2019-03-23T16:44:35.244Z,26.83
2019-03-23T16:45:35.266Z,27.83
2019-03-23T16:46:35.209Z,27.64
2019-03-23T16:47:35.242Z,27.64
2019-03-23T16:48:35.172Z,27.33
2019-03-23T16:49:35.193Z,28.05
2019-03-23T16:50:35.147Z,27.35
2019-03-23T16:51:35.138Z,28.25
2019-03-23T16:52:35.157Z,27.96
2019-03-23T16:53:35.130Z,28.36
2019-03-23T16:54:35.100Z,27.76
2019-03-23T16:55:35.158Z,28.06
2019-03-23T16:56:35.079Z,28.96
2019-03-23T16:57:35.070Z,28.28
2019-03-23T16:58:35.237Z,28.98
2019-03-23T16:59:35.045Z,28.98
2019-03-23T17:00:35.038Z,28.38
2019-03-23T17:01:35.041Z,28.48
2019-03-23T17:02:35.057Z,28.78
2019-03-23T17:03:35.007Z,28.79
2019-03-23T17:04:34.994Z,28.39
2019-03-23T17:05:36.424Z,29.49
2019-03-23T17:06:35.017Z,29.29
2019-03-23T17:07:34.982Z,29.60
2019-03-23T17:08:35.024Z,29.99
2019-03-23T17:09:35.024Z,29.49
2019-03-23T17:10:34.942Z,29.49
2019-03-23T17:11:34.941Z,29.69
2019-03-23T17:12:34.921Z,29.71
2019-03-23T17:13:34.886Z,29.41
2019-03-23T17:14:34.889Z,29.81
2019-03-23T17:15:34.900Z,30.01
2019-03-23T17:16:34.858Z,29.61
2019-03-23T17:17:34.854Z,29.71
2019-03-23T17:18:34.903Z,30.52
2019-03-23T17:19:34.824Z,30.63
2019-03-23T17:20:34.811Z,30.52
2019-03-23T17:21:34.803Z,29.93
2019-03-23T17:22:34.809Z,30.22
2019-03-23T17:23:34.778Z,30.24
2019-03-23T17:24:34.785Z,30.24
2019-03-23T17:25:34.757Z,30.54
2019-03-23T17:26:34.749Z,31.04
2019-03-23T17:27:34.743Z,30.34
2019-03-23T17:28:34.737Z,30.96
2019-03-23T17:29:34.727Z,31.04
2019-03-23T17:30:34.740Z,30.46
2019-03-23T17:31:34.755Z,30.55
2019-03-23T17:32:34.724Z,30.65
2019-03-23T17:33:34.673Z,31.88
2019-03-23T17:34:34.667Z,31.48
2019-03-23T17:35:34.649Z,31.57
2019-03-23T17:36:34.701Z,31.98
2019-03-23T17:37:34.629Z,31.89
2019-03-23T17:38:34.711Z,31.88
2019-03-23T17:39:34.635Z,31.98
2019-03-23T17:40:34.669Z,31.88
2019-03-23T17:41:34.583Z,31.79
2019-03-23T17:42:34.601Z,32.39
2019-03-23T17:43:34.575Z,32.39
2019-03-23T17:44:34.577Z,32.59
2019-03-23T17:45:34.536Z,32.70
2019-03-23T17:46:34.531Z,32.90
2019-03-23T17:47:34.567Z,32.59
2019-03-23T17:48:35.406Z,32.61
2019-03-23T17:49:34.515Z,32.73
2019-03-23T17:50:34.528Z,33.94
2019-03-23T17:51:34.593Z,32.31
2019-03-23T17:52:34.529Z,33.53
2019-03-23T17:53:34.508Z,33.53
2019-03-23T17:54:34.738Z,33.62
2019-03-23T17:55:34.707Z,34.02
2019-03-23T17:56:34.437Z,33.84
2019-03-23T17:57:34.408Z,33.23
2019-03-23T17:58:34.420Z,33.73
2019-03-23T17:59:34.665Z,32.93
2019-03-23T18:00:34.434Z,33.03
2019-03-23T18:01:34.418Z,33.13
2019-03-23T18:02:34.432Z,33.03
2019-03-23T18:03:34.331Z,32.83
2019-03-23T18:04:34.454Z,33.23
2019-03-23T18:05:34.336Z,32.93
2019-03-23T18:06:34.331Z,32.93
2019-03-23T18:07:34.360Z,33.13
2019-03-23T18:08:34.284Z,33.64
2019-03-23T18:09:34.383Z,32.93
2019-03-23T18:10:34.293Z,33.64
2019-03-23T18:11:34.284Z,34.34
2019-03-23T18:12:34.519Z,34.14
2019-03-23T18:13:34.686Z,34.16
2019-03-23T18:14:34.283Z,34.54
2019-03-23T18:15:34.203Z,34.56
2019-03-23T18:16:34.211Z,34.34
2019-03-23T18:17:34.469Z,34.56
2019-03-23T18:18:34.236Z,34.14
2019-03-23T18:19:34.227Z,34.36
2019-03-23T18:20:34.211Z,34.66
2019-03-23T18:21:34.131Z,34.56
2019-03-23T18:22:34.161Z,34.76
2019-03-23T18:23:34.137Z,34.66
2019-03-23T18:24:34.188Z,33.95
2019-03-23T18:25:34.129Z,34.45
2019-03-23T18:26:34.205Z,34.45
2019-03-23T18:27:34.161Z,34.45
2019-03-23T18:28:34.155Z,34.17
2019-03-23T18:29:34.114Z,34.76
2019-03-23T18:30:34.198Z,34.67
2019-03-23T18:31:34.041Z,34.27
2019-03-23T18:32:34.035Z,34.67
2019-03-23T18:33:34.253Z,35.17
2019-03-23T18:34:34.045Z,34.47
2019-03-23T18:35:34.000Z,34.77
2019-03-23T18:36:33.984Z,34.17
2019-03-23T18:37:33.987Z,34.77
2019-03-23T18:38:34.275Z,34.28
2019-03-23T18:39:34.278Z,34.28
2019-03-23T18:40:33.942Z,34.89
2019-03-23T18:41:33.943Z,35.01
2019-03-23T18:42:35.272Z,35.72
2019-03-23T18:43:33.927Z,35.31
2019-03-23T18:44:33.941Z,35.43
2019-03-23T18:45:34.171Z,35.73
2019-03-23T18:46:33.919Z,35.83
2019-03-23T18:47:34.030Z,35.93
2019-03-23T18:48:33.883Z,35.73
2019-03-23T18:49:34.122Z,35.83
2019-03-23T18:50:34.272Z,35.85
2019-03-23T18:51:33.815Z,35.85
2019-03-23T18:52:35.200Z,36.57
2019-03-23T18:53:33.872Z,36.98
2019-03-23T18:54:34.142Z,37.08
2019-03-23T18:55:34.449Z,37.38
2019-03-23T18:56:33.965Z,36.79
2019-03-23T18:57:33.822Z,36.68
2019-03-23T18:58:34.129Z,36.90
2019-03-23T18:59:33.756Z,37.10
2019-03-23T19:00:33.716Z,37.82
2019-03-23T19:01:33.704Z,37.43
2019-03-23T19:02:33.702Z,37.54
2019-03-23T19:03:33.695Z,37.54
2019-03-23T19:04:33.776Z,38.14
2019-03-23T19:05:33.658Z,37.84
2019-03-23T19:06:33.736Z,38.24
2019-03-23T19:07:33.654Z,37.94
2019-03-23T19:08:33.616Z,38.06
2019-03-23T19:09:33.617Z,38.06
2019-03-23T19:10:33.592Z,37.34
2019-03-23T19:11:33.591Z,36.71
2019-03-23T19:12:33.623Z,37.21
2019-03-23T19:13:37.707Z,37.12
2019-03-23T19:14:33.600Z,37.32
2019-03-23T19:15:33.605Z,36.49
2019-03-23T19:16:33.628Z,36.19
2019-03-23T19:17:33.575Z,36.29
2019-03-23T19:18:33.523Z,36.59
2019-03-23T19:19:33.587Z,36.37
2019-03-23T19:20:33.506Z,36.90
2019-03-23T19:21:33.493Z,36.49
2019-03-23T19:22:33.515Z,36.07
2019-03-23T19:23:34.544Z,36.27
2019-03-23T19:24:33.525Z,35.86
2019-03-23T19:25:33.508Z,36.37
2019-03-23T19:26:33.426Z,36.49
2019-03-23T19:27:33.613Z,35.66
2019-03-23T19:28:33.415Z,35.68
2019-03-23T19:29:33.457Z,36.29
2019-03-23T19:30:33.444Z,36.79
2019-03-23T19:31:33.436Z,37.50
2019-03-23T19:32:33.369Z,37.21
2019-03-23T19:33:33.467Z,36.91
2019-03-23T19:34:33.477Z,36.71
2019-03-23T19:35:33.390Z,37.23
2019-03-23T19:36:33.342Z,37.01
2019-03-23T19:37:33.470Z,37.74
2019-03-23T19:38:33.372Z,37.43
2019-03-23T19:39:33.344Z,38.06
2019-03-23T19:40:33.647Z,38.06
2019-03-23T19:41:34.471Z,38.46
2019-03-23T19:42:33.273Z,38.67
2019-03-23T19:43:33.248Z,38.87
2019-03-23T19:44:33.331Z,39.39
2019-03-23T19:45:33.473Z,38.60
2019-03-23T19:46:33.281Z,39.01
2019-03-23T19:47:33.309Z,38.08
2019-03-23T19:48:33.325Z,38.08
2019-03-23T19:49:33.280Z,38.48
2019-03-23T19:50:33.162Z,38.59
2019-03-23T19:51:33.570Z,39.31
2019-03-23T19:52:33.641Z,39.21
2019-03-23T19:53:33.522Z,38.91
2019-03-23T19:54:33.167Z,38.82
2019-03-23T19:55:33.170Z,39.11
2019-03-23T19:56:33.098Z,39.01
2019-03-23T19:57:33.226Z,39.01
2019-03-23T19:58:33.146Z,38.81
2019-03-23T19:59:33.200Z,39.01
2019-03-23T20:00:33.204Z,39.43
2019-03-23T20:01:33.177Z,39.53
2019-03-23T20:02:33.052Z,39.53
2019-03-23T20:03:33.056Z,39.53
2019-03-23T20:04:33.010Z,39.03
2019-03-23T20:05:33.077Z,39.03
2019-03-23T20:06:32.997Z,39.55
2019-03-23T20:07:33.498Z,39.53
2019-03-23T20:08:33.036Z,39.42
2019-03-23T20:09:33.061Z,38.89
2019-03-23T20:10:33.101Z,38.89
2019-03-23T20:11:33.155Z,39.62
2019-03-23T20:12:32.916Z,39.92
2019-03-23T20:13:33.156Z,39.31
2019-03-23T20:14:32.948Z,40.24
2019-03-23T20:15:32.913Z,40.75
2019-03-23T20:16:32.920Z,40.34
2019-03-23T20:17:33.204Z,40.75
2019-03-23T20:18:32.840Z,40.55
2019-03-23T20:19:32.894Z,40.65
2019-03-23T20:20:32.832Z,40.97
2019-03-23T20:21:32.900Z,40.67
2019-03-23T20:22:32.945Z,41.50
2019-03-23T20:23:32.980Z,41.80
2019-03-23T20:24:32.796Z,41.31
2019-03-23T20:25:33.865Z,41.93
2019-03-23T20:26:32.759Z,41.74
2019-03-23T20:27:32.786Z,42.55
2019-03-23T20:28:32.762Z,41.84
2019-03-23T20:29:32.722Z,42.14
2019-03-23T20:30:32.707Z,42.88
2019-03-23T20:31:32.707Z,42.98
2019-03-23T20:32:32.760Z,42.55
2019-03-23T20:33:32.740Z,41.94
2019-03-23T20:34:32.658Z,42.74
2019-03-23T20:35:32.692Z,41.94
2019-03-23T20:36:32.706Z,41.72
2019-03-23T20:37:32.723Z,42.02
2019-03-23T20:38:32.672Z,42.23
2019-03-23T20:39:32.607Z,41.21
2019-03-23T20:40:32.601Z,41.91
2019-03-23T20:41:32.629Z,41.91
2019-03-23T20:42:32.606Z,41.50
2019-03-23T20:43:32.565Z,42.11
2019-03-23T20:44:32.584Z,41.80
2019-03-23T20:45:32.565Z,41.17
2019-03-23T20:46:32.547Z,41.38
2019-03-23T20:47:32.612Z,39.51
2019-03-23T20:48:32.710Z,39.39
2019-03-23T20:49:32.530Z,39.60
2019-03-23T20:50:32.480Z,38.77
2019-03-23T20:51:33.297Z,38.46
2019-03-23T20:52:32.510Z,38.35
2019-03-23T20:53:32.453Z,37.82
2019-03-23T20:54:32.538Z,37.74
2019-03-23T20:55:32.477Z,37.43
2019-03-23T20:56:32.520Z,38.24
2019-03-23T20:57:37.295Z,38.24
2019-03-23T20:58:33.521Z,37.72
2019-03-23T20:59:32.382Z,37.82
2019-03-23T21:00:32.450Z,36.91
2019-03-23T21:01:32.467Z,37.12
2019-03-23T21:02:32.376Z,36.61
2019-03-23T21:03:32.363Z,37.10
2019-03-23T21:04:32.349Z,36.90
2019-03-23T21:05:34.189Z,36.68
2019-03-23T21:06:32.345Z,35.99
2019-03-23T21:07:32.305Z,36.19
2019-03-23T21:08:32.666Z,36.59
2019-03-23T21:09:32.276Z,36.39
2019-03-23T21:10:32.257Z,35.88
2019-03-23T21:11:32.650Z,36.39
2019-03-23T21:12:32.279Z,35.86
2019-03-23T21:13:32.418Z,36.39
2019-03-23T21:14:33.445Z,35.46
2019-03-23T21:15:32.537Z,35.77
2019-03-23T21:16:32.321Z,35.36
2019-03-23T21:17:32.207Z,35.86
2019-03-23T21:18:32.243Z,35.88
2019-03-23T21:19:32.164Z,35.68
2019-03-23T21:20:32.178Z,35.78
2019-03-23T21:21:32.145Z,35.99
2019-03-23T21:22:32.127Z,36.39
2019-03-23T21:23:32.148Z,35.86
2019-03-23T21:24:32.456Z,36.17
2019-03-23T21:25:32.091Z,35.99
2019-03-23T21:26:32.116Z,36.19
2019-03-23T21:27:32.073Z,35.68
2019-03-23T21:28:32.254Z,36.30
2019-03-23T21:29:32.046Z,36.72
2019-03-23T21:30:32.037Z,36.65
2019-03-23T21:31:32.040Z,36.52
2019-03-23T21:32:32.209Z,36.85
2019-03-23T21:33:36.066Z,37.25
2019-03-23T21:34:32.991Z,37.27